createdAt,value
2022-12-20T00:00:57.091Z,26.77
2022-12-20T00:03:20.235Z,26.43
2022-12-20T00:05:42.703Z,27.07
2022-12-20T00:08:04.359Z,27.20
2022-12-20T00:10:25.940Z,26.40
2022-12-20T00:12:47.455Z,26.30
2022-12-20T00:15:09.812Z,27.17
2022-12-20T00:17:31.602Z,26.90
2022-12-20T00:19:53.121Z,27.60
2022-12-20T00:22:14.879Z,25.83
2022-12-20T00:24:37.125Z,28.67
2022-12-20T00:26:58.685Z,25.63
2022-12-20T00:29:20.144Z,27.27
2022-12-20T00:31:41.661Z,27.50
2022-12-20T00:34:03.472Z,26.83
2022-12-20T00:36:27.281Z,27.97
2022-12-20T00:38:50.904Z,26.93
2022-12-20T00:41:16.363Z,26.60
2022-12-20T00:43:39.501Z,26.80
2022-12-20T00:46:01.526Z,26.27
2022-12-20T00:48:23.388Z,27.63
2022-12-20T00:50:44.874Z,27.33
2022-12-20T00:53:09.903Z,27.90
2022-12-20T00:55:31.392Z,27.50
2022-12-20T00:57:52.873Z,27.23
2022-12-20T01:00:15.418Z,27.07
2022-12-20T01:02:37.134Z,26.90
2022-12-20T01:04:58.907Z,27.80
2022-12-20T01:07:20.405Z,27.33
2022-12-20T01:09:41.899Z,27.63
2022-12-20T01:12:03.745Z,28.10
2022-12-20T01:14:25.228Z,26.70
2022-12-20T01:16:48.185Z,27.03
2022-12-20T01:19:13.239Z,26.70
2022-12-20T01:21:36.014Z,27.03
2022-12-20T01:23:57.717Z,26.37
2022-12-20T01:26:22.234Z,27.57
2022-12-20T01:28:45.700Z,27.20
2022-12-20T01:31:12.490Z,27.37
2022-12-20T01:33:34.832Z,27.10
2022-12-20T01:35:58.468Z,27.43
2022-12-20T01:38:19.929Z,25.33
2022-12-20T01:40:41.438Z,26.90
2022-12-20T01:43:02.918Z,26.70
2022-12-20T01:45:30.995Z,27.83
2022-12-20T01:47:52.724Z,28.20
2022-12-20T01:50:14.465Z,28.20
2022-12-20T01:52:40.908Z,28.13
2022-12-20T01:55:08.722Z,29.33
2022-12-20T01:57:41.101Z,29.00
2022-12-20T02:00:04.574Z,28.07
2022-12-20T02:02:27.126Z,28.50
2022-12-20T02:04:48.693Z,29.93
2022-12-20T02:07:17.487Z,28.63
2022-12-20T02:09:39.660Z,29.93
2022-12-20T02:12:03.787Z,27.93
2022-12-20T02:15:13.229Z,28.23
2022-12-20T02:18:02.189Z,28.20
2022-12-20T02:20:39.515Z,27.97
2022-12-20T02:23:22.588Z,28.00
2022-12-20T02:26:04.716Z,29.17
2022-12-20T02:28:52.152Z,29.33
2022-12-20T02:31:18.930Z,28.10
2022-12-20T02:33:48.030Z,29.07
2022-12-20T02:36:09.734Z,27.33
2022-12-20T02:38:35.843Z,28.73
2022-12-20T02:41:27.187Z,28.30
2022-12-20T02:44:12.993Z,29.03
2022-12-20T02:46:36.178Z,28.17
2022-12-20T02:49:03.318Z,29.20
2022-12-20T02:51:28.703Z,29.37
2022-12-20T02:53:50.783Z,28.57
2022-12-20T02:56:36.438Z,28.93
2022-12-20T02:59:21.469Z,26.57
2022-12-20T03:01:49.906Z,28.53
2022-12-20T03:04:12.605Z,25.90
2022-12-20T03:06:34.544Z,29.03
2022-12-20T03:08:56.209Z,28.00
2022-12-20T03:11:17.743Z,26.83
2022-12-20T03:13:39.352Z,27.73
2022-12-20T03:16:00.849Z,28.33
2022-12-20T03:18:22.366Z,28.20
2022-12-20T03:20:44.287Z,28.23
2022-12-20T03:23:06.654Z,28.03
2022-12-20T03:25:28.302Z,25.13
2022-12-20T03:27:49.811Z,29.70
2022-12-20T03:30:12.132Z,27.33
2022-12-20T03:32:33.695Z,30.17
2022-12-20T03:34:55.189Z,28.30
2022-12-20T03:37:16.802Z,26.97
2022-12-20T03:39:38.290Z,28.67
2022-12-20T03:41:59.792Z,28.27
2022-12-20T03:44:21.481Z,27.43
2022-12-20T03:46:43.068Z,28.30
2022-12-20T03:49:04.718Z,27.97
2022-12-20T03:51:26.291Z,28.70
2022-12-20T03:53:47.763Z,27.33
2022-12-20T03:56:09.292Z,27.80
2022-12-20T03:58:30.795Z,27.90
2022-12-20T04:00:52.376Z,26.43
2022-12-20T04:03:13.942Z,27.63
2022-12-20T04:05:35.523Z,27.33
2022-12-20T04:07:57.007Z,27.80
2022-12-20T04:10:18.515Z,26.00
2022-12-20T04:12:40.030Z,27.77
2022-12-20T04:15:01.651Z,27.37
2022-12-20T04:17:23.171Z,27.30
2022-12-20T04:19:44.653Z,26.97
2022-12-20T04:22:06.515Z,26.93
2022-12-20T04:24:28.145Z,27.90
2022-12-20T04:26:49.724Z,27.43
2022-12-20T04:29:11.331Z,27.80
2022-12-20T04:31:33.371Z,27.27
2022-12-20T04:33:55.206Z,27.47
2022-12-20T04:36:16.795Z,28.33
2022-12-20T04:38:38.280Z,26.10
2022-12-20T04:40:59.953Z,28.27
2022-12-20T04:43:22.953Z,27.13
2022-12-20T04:45:45.277Z,28.60
2022-12-20T04:48:36.922Z,26.93
2022-12-20T04:50:49.633Z,26.23
2022-12-20T04:53:30.249Z,26.87
2022-12-20T04:55:51.951Z,28.63
2022-12-20T04:58:13.450Z,26.87
2022-12-20T05:00:35.406Z,26.93
2022-12-20T05:02:56.980Z,28.07
2022-12-20T05:05:18.624Z,27.27
2022-12-20T05:07:40.306Z,28.50
2022-12-20T05:10:01.859Z,27.20
2022-12-20T05:12:23.346Z,26.97
2022-12-20T05:14:44.903Z,28.00
2022-12-20T05:17:06.522Z,28.07
2022-12-20T05:19:27.994Z,26.87
2022-12-20T05:22:08.075Z,26.63
2022-12-20T05:24:48.147Z,27.27
2022-12-20T05:27:09.696Z,27.80
2022-12-20T05:29:31.187Z,27.27
2022-12-20T05:31:52.780Z,25.87
2022-12-20T05:34:14.400Z,26.47
2022-12-20T05:36:35.900Z,26.77
2022-12-20T05:39:03.650Z,25.13
2022-12-20T05:41:26.008Z,26.70
2022-12-20T05:43:47.467Z,27.13
2022-12-20T05:46:09.077Z,27.37
2022-12-20T05:48:30.660Z,27.67
2022-12-20T05:50:52.177Z,25.90
2022-12-20T05:53:15.558Z,25.23
2022-12-20T05:55:37.089Z,27.40
2022-12-20T05:57:58.573Z,26.87
2022-12-20T06:00:20.341Z,26.80
2022-12-20T06:02:42.082Z,26.20
2022-12-20T06:05:03.835Z,25.87
2022-12-20T06:07:28.950Z,25.87
2022-12-20T06:09:50.579Z,26.30
2022-12-20T06:12:12.071Z,27.03
2022-12-20T06:14:33.545Z,26.37
2022-12-20T06:16:55.102Z,25.13
2022-12-20T06:19:21.416Z,24.90
2022-12-20T06:21:43.443Z,27.13
2022-12-20T06:24:05.747Z,24.73
2022-12-20T06:26:27.665Z,26.43
2022-12-20T06:28:52.798Z,25.43
2022-12-20T06:31:14.440Z,24.50
2022-12-20T06:33:36.681Z,26.00
2022-12-20T06:35:58.143Z,26.00
2022-12-20T06:38:19.662Z,26.17
2022-12-20T06:40:41.187Z,26.13
2022-12-20T06:43:02.674Z,27.37
2022-12-20T06:45:24.168Z,26.57
2022-12-20T06:47:45.695Z,25.90
2022-12-20T06:50:07.929Z,30.47
2022-12-20T06:52:29.460Z,27.10
2022-12-20T06:54:50.934Z,28.37
2022-12-20T06:57:12.555Z,26.17
2022-12-20T06:59:34.042Z,26.93
2022-12-20T07:01:55.690Z,27.17
2022-12-20T07:04:17.395Z,27.70
2022-12-20T07:06:38.873Z,26.93
2022-12-20T07:09:00.411Z,27.57
2022-12-20T07:11:22.353Z,26.20
2022-12-20T07:13:43.828Z,26.07
2022-12-20T07:16:05.801Z,26.20
2022-12-20T07:18:27.420Z,26.57
2022-12-20T07:20:48.904Z,26.13
2022-12-20T07:23:10.376Z,26.17
2022-12-20T07:25:31.996Z,26.23
2022-12-20T07:27:53.956Z,24.83
2022-12-20T07:30:16.501Z,25.50
2022-12-20T07:32:37.959Z,25.33
2022-12-20T07:34:59.476Z,27.23
2022-12-20T07:37:20.974Z,26.57
2022-12-20T07:39:42.451Z,26.53
2022-12-20T07:42:05.236Z,25.50
2022-12-20T07:44:26.729Z,25.47
2022-12-20T07:46:48.356Z,26.80
2022-12-20T07:49:10.077Z,27.53
2022-12-20T07:51:36.427Z,24.30
2022-12-20T07:54:22.617Z,25.60
2022-12-20T07:56:47.676Z,24.67
2022-12-20T07:59:13.049Z,25.47
2022-12-20T08:01:35.414Z,25.27
2022-12-20T08:04:12.970Z,25.40
2022-12-20T08:06:37.121Z,25.50
2022-12-20T08:09:02.884Z,26.20
2022-12-20T08:11:25.942Z,26.20
2022-12-20T08:13:54.189Z,26.47
2022-12-20T08:16:19.183Z,26.33
2022-12-20T08:18:40.723Z,25.97
2022-12-20T08:21:02.244Z,28.00
2022-12-20T08:23:23.697Z,25.83
2022-12-20T08:25:45.365Z,27.17
2022-12-20T08:28:06.855Z,26.80
2022-12-20T08:30:28.977Z,28.70
2022-12-20T08:32:50.519Z,27.10
2022-12-20T08:35:13.117Z,27.37
2022-12-20T08:37:34.722Z,26.10
2022-12-20T08:39:56.196Z,25.33
2022-12-20T08:42:17.750Z,26.97
2022-12-20T08:44:39.235Z,29.00
2022-12-20T08:47:00.752Z,29.23
2022-12-20T08:49:22.320Z,26.50
2022-12-20T08:51:43.904Z,25.57
2022-12-20T08:54:05.540Z,24.67
2022-12-20T08:56:27.037Z,25.00
2022-12-20T08:58:48.781Z,25.40
2022-12-20T09:01:13.222Z,23.93
2022-12-20T09:03:36.188Z,24.00
2022-12-20T09:05:59.345Z,24.23
2022-12-20T09:08:20.914Z,24.60
2022-12-20T09:10:43.325Z,24.00
2022-12-20T09:13:04.768Z,24.93
2022-12-20T09:15:27.812Z,22.03
2022-12-20T09:17:49.341Z,20.87
2022-12-20T09:20:11.012Z,21.80
2022-12-20T09:22:32.457Z,21.00
2022-12-20T09:24:53.904Z,21.00
2022-12-20T09:27:15.422Z,20.20
2022-12-20T09:29:36.908Z,22.67
2022-12-20T09:31:58.406Z,22.73
2022-12-20T09:34:19.861Z,23.00
2022-12-20T09:36:41.361Z,23.10
2022-12-20T09:39:02.836Z,22.60
2022-12-20T09:41:38.273Z,22.60
2022-12-20T09:44:05.641Z,23.03
2022-12-20T09:46:28.050Z,23.10
2022-12-20T09:48:50.906Z,23.33
2022-12-20T09:51:41.880Z,23.27
2022-12-20T09:54:09.162Z,20.80
2022-12-20T09:56:36.622Z,23.60
2022-12-20T09:59:06.838Z,21.30
2022-12-20T10:01:38.069Z,20.73
2022-12-20T10:04:05.008Z,20.13
2022-12-20T10:06:55.589Z,21.87
2022-12-20T10:09:46.381Z,20.57
2022-12-20T10:12:15.501Z,19.33
2022-12-20T10:14:55.348Z,21.30
2022-12-20T10:17:19.638Z,20.43
2022-12-20T10:19:59.348Z,19.80
2022-12-20T10:22:26.058Z,18.03
2022-12-20T10:25:01.875Z,20.47
2022-12-20T10:27:24.670Z,23.60
2022-12-20T10:29:48.235Z,21.90
2022-12-20T10:32:22.259Z,22.53
2022-12-20T10:35:01.306Z,21.57
2022-12-20T10:37:22.868Z,21.50
2022-12-20T10:39:48.998Z,21.27
2022-12-20T10:42:36.025Z,19.47
2022-12-20T10:44:57.819Z,20.13
2022-12-20T10:47:34.245Z,19.90
2022-12-20T10:50:08.878Z,20.13
2022-12-20T10:52:30.356Z,19.63
2022-12-20T10:54:51.850Z,18.60
2022-12-20T10:57:25.133Z,19.00
2022-12-20T10:59:55.341Z,18.97
2022-12-20T11:02:35.009Z,18.63
2022-12-20T11:05:01.337Z,21.63
2022-12-20T11:07:27.451Z,20.47
2022-12-20T11:09:57.154Z,21.27
2022-12-20T11:12:18.768Z,21.83
2022-12-20T11:14:42.000Z,20.53
2022-12-20T11:17:11.588Z,20.93
2022-12-20T11:19:59.476Z,23.63
2022-12-20T11:22:37.437Z,21.67
2022-12-20T11:25:26.007Z,20.20
2022-12-20T11:28:03.770Z,18.83
2022-12-20T11:30:53.760Z,20.03
2022-12-20T11:33:50.988Z,21.33
2022-12-20T11:36:27.294Z,20.23
2022-12-20T11:39:31.263Z,21.70
2022-12-20T11:42:11.113Z,19.93
2022-12-20T11:44:50.157Z,20.93
2022-12-20T11:47:50.094Z,21.50
2022-12-20T11:50:36.343Z,21.33
2022-12-20T11:53:08.790Z,21.27
2022-12-20T11:55:35.523Z,19.70
2022-12-20T11:58:18.755Z,20.43
2022-12-20T12:00:44.920Z,21.43
2022-12-20T12:03:32.684Z,19.63
2022-12-20T12:06:00.770Z,19.97
2022-12-20T12:08:29.180Z,19.37
2022-12-20T12:11:07.060Z,19.87
2022-12-20T12:13:31.911Z,23.73
2022-12-20T12:16:05.323Z,19.57
2022-12-20T12:18:32.032Z,20.00
2022-12-20T12:21:10.108Z,20.47
2022-12-20T12:23:46.780Z,20.27
2022-12-20T12:26:18.456Z,19.77
2022-12-20T12:28:39.994Z,21.17
2022-12-20T12:31:10.757Z,21.93
2022-12-20T12:33:39.252Z,20.40
2022-12-20T12:36:46.867Z,20.70
2022-12-20T12:39:33.557Z,21.33
2022-12-20T12:42:07.303Z,21.77
2022-12-20T12:44:49.578Z,21.77
2022-12-20T12:47:28.420Z,20.10
2022-12-20T12:49:52.974Z,21.47
2022-12-20T12:52:36.264Z,22.60
2022-12-20T12:54:57.762Z,21.50
2022-12-20T12:57:19.581Z,21.90
2022-12-20T12:59:49.475Z,20.20
2022-12-20T13:02:14.317Z,20.43
2022-12-20T13:05:06.820Z,20.77
2022-12-20T13:07:35.123Z,27.50
2022-12-20T13:09:56.683Z,23.43
2022-12-20T13:12:36.271Z,21.23
2022-12-20T13:14:57.788Z,21.67
2022-12-20T13:17:25.755Z,22.33
2022-12-20T13:19:53.467Z,19.87
2022-12-20T13:22:17.711Z,20.30
2022-12-20T13:24:56.331Z,20.83
2022-12-20T13:27:37.016Z,21.70
2022-12-20T13:30:04.634Z,21.20
2022-12-20T13:32:47.751Z,21.80
2022-12-20T13:35:24.701Z,25.60
2022-12-20T13:38:02.060Z,22.77
2022-12-20T13:40:38.892Z,20.80
2022-12-20T13:43:07.725Z,21.20
2022-12-20T13:45:29.780Z,20.80
2022-12-20T13:47:59.917Z,22.60
2022-12-20T13:50:27.438Z,21.37
2022-12-20T13:52:49.324Z,19.90
2022-12-20T13:55:30.960Z,19.23
2022-12-20T13:57:54.042Z,19.70
2022-12-20T14:00:25.515Z,20.63
2022-12-20T14:02:47.257Z,19.57
2022-12-20T14:05:26.717Z,20.27
2022-12-20T14:07:58.111Z,20.90
2022-12-20T14:10:23.886Z,19.97
2022-12-20T14:12:46.280Z,19.60
2022-12-20T14:15:34.115Z,19.07
2022-12-20T14:17:55.716Z,19.47
2022-12-20T14:20:22.465Z,20.30
2022-12-20T14:22:59.261Z,22.00
2022-12-20T14:25:38.677Z,20.07
2022-12-20T14:28:00.533Z,19.60
2022-12-20T14:30:32.019Z,19.77
2022-12-20T14:32:55.444Z,20.30
2022-12-20T14:35:21.067Z,19.50
2022-12-20T14:37:53.379Z,18.80
2022-12-20T14:40:19.373Z,18.43
2022-12-20T14:42:40.928Z,19.60
2022-12-20T14:45:27.059Z,19.20
2022-12-20T14:47:51.822Z,18.50
2022-12-20T14:50:26.470Z,20.23
2022-12-20T14:52:48.032Z,19.60
2022-12-20T14:55:17.811Z,20.90
2022-12-20T14:57:45.278Z,17.53
2022-12-20T15:00:15.309Z,18.97
2022-12-20T15:02:41.593Z,20.23
2022-12-20T15:05:35.636Z,19.87
2022-12-20T15:08:15.399Z,19.13
2022-12-20T15:10:37.245Z,18.67
2022-12-20T15:12:58.695Z,18.17
2022-12-20T15:15:34.627Z,17.67
2022-12-20T15:17:56.127Z,18.27
2022-12-20T15:20:17.705Z,17.70
2022-12-20T15:22:39.976Z,18.93
2022-12-20T15:25:01.516Z,19.63
2022-12-20T15:27:24.431Z,18.30
2022-12-20T15:29:45.858Z,17.43
2022-12-20T15:32:15.833Z,17.87
2022-12-20T15:34:38.770Z,17.33
2022-12-20T15:37:00.363Z,16.93
2022-12-20T15:39:22.331Z,18.73
2022-12-20T15:41:47.157Z,22.17
2022-12-20T15:44:17.551Z,18.97
2022-12-20T15:46:39.066Z,17.80
2022-12-20T15:49:00.522Z,17.87
2022-12-20T15:51:30.137Z,19.60
2022-12-20T15:53:51.614Z,19.50
2022-12-20T15:56:19.414Z,18.70
2022-12-20T15:58:40.858Z,18.70
2022-12-20T16:01:03.463Z,35.37
2022-12-20T16:03:30.660Z,22.13
2022-12-20T16:05:52.472Z,19.33
2022-12-20T16:08:14.137Z,18.77
2022-12-20T16:10:36.405Z,18.40
2022-12-20T16:12:57.906Z,18.70
2022-12-20T16:15:22.309Z,19.77
2022-12-20T16:17:43.809Z,18.83
2022-12-20T16:20:06.096Z,19.70
2022-12-20T16:22:27.516Z,19.10
2022-12-20T16:24:49.483Z,19.30
2022-12-20T16:27:11.417Z,31.07
2022-12-20T16:29:32.862Z,18.00
2022-12-20T16:31:54.358Z,18.23
2022-12-20T16:34:17.088Z,18.97
2022-12-20T16:36:38.618Z,19.03
2022-12-20T16:39:00.059Z,21.93
2022-12-20T16:41:24.826Z,24.50
2022-12-20T16:43:47.926Z,19.47
2022-12-20T16:46:12.586Z,20.57
2022-12-20T16:48:34.602Z,18.77
2022-12-20T16:50:57.209Z,17.93
2022-12-20T16:53:19.258Z,18.60
2022-12-20T16:55:40.930Z,18.63
2022-12-20T16:58:02.374Z,17.93
2022-12-20T17:00:27.055Z,19.43
2022-12-20T17:02:49.716Z,17.57
2022-12-20T17:05:25.781Z,17.83
2022-12-20T17:07:47.220Z,18.93
2022-12-20T17:10:10.157Z,19.37
2022-12-20T17:12:31.597Z,17.60
2022-12-20T17:14:53.109Z,17.50
2022-12-20T17:17:15.406Z,19.17
2022-12-20T17:19:37.118Z,19.37
2022-12-20T17:24:37.685Z,18.73
2022-12-20T17:27:00.403Z,19.20
2022-12-20T17:29:22.109Z,20.77
2022-12-20T17:31:46.401Z,19.10
2022-12-20T17:34:22.756Z,20.50
2022-12-20T17:36:45.139Z,21.33
2022-12-20T17:39:06.583Z,20.23
2022-12-20T17:41:31.292Z,20.03
2022-12-20T17:43:53.559Z,19.90
2022-12-20T17:46:15.301Z,20.30
2022-12-20T17:48:43.425Z,20.27
2022-12-20T17:51:14.901Z,20.17
2022-12-20T17:53:36.338Z,19.87
2022-12-20T17:55:57.797Z,19.60
2022-12-20T17:58:19.231Z,20.63
2022-12-20T18:00:40.847Z,20.40
2022-12-20T18:03:02.403Z,20.83
2022-12-20T18:05:24.978Z,19.50
2022-12-20T18:07:54.406Z,22.07
2022-12-20T18:10:15.913Z,19.80
2022-12-20T18:12:38.973Z,19.37
2022-12-20T18:15:01.034Z,20.77
2022-12-20T18:17:22.497Z,20.17
2022-12-20T18:19:44.029Z,20.60
2022-12-20T18:22:06.561Z,20.13
2022-12-20T18:24:28.248Z,19.20
2022-12-20T18:26:49.725Z,23.47
2022-12-20T18:29:11.438Z,25.47
2022-12-20T18:31:34.554Z,21.57
2022-12-20T18:33:58.252Z,19.70
2022-12-20T18:36:25.798Z,18.53
2022-12-20T18:38:48.994Z,18.33
2022-12-20T18:41:19.413Z,18.43
2022-12-20T18:43:41.198Z,18.00
2022-12-20T18:46:07.819Z,17.87
2022-12-20T18:48:29.378Z,17.70
2022-12-20T18:50:50.897Z,18.10
2022-12-20T18:53:12.383Z,18.33
2022-12-20T18:55:36.899Z,18.40
2022-12-20T18:57:58.326Z,18.73
2022-12-20T19:00:20.512Z,18.47
2022-12-20T19:02:42.920Z,17.10
2022-12-20T19:05:04.803Z,15.70
2022-12-20T19:07:26.321Z,15.80
2022-12-20T19:09:47.809Z,17.93
2022-12-20T19:12:09.258Z,17.17
2022-12-20T19:14:30.718Z,16.33
2022-12-20T19:16:52.223Z,14.87
2022-12-20T19:19:14.054Z,15.93
2022-12-20T19:21:37.779Z,15.27
2022-12-20T19:24:03.926Z,15.63
2022-12-20T19:26:30.328Z,15.87
2022-12-20T19:28:51.883Z,18.27
2022-12-20T19:31:24.913Z,19.70
2022-12-20T19:33:48.018Z,18.53
2022-12-20T19:36:12.891Z,19.33
2022-12-20T19:38:34.337Z,19.83
2022-12-20T19:40:55.867Z,18.87
2022-12-20T19:43:17.318Z,21.07
2022-12-20T19:45:39.005Z,20.93
2022-12-20T19:48:00.469Z,23.90
2022-12-20T19:50:21.962Z,20.67
2022-12-20T19:52:43.402Z,18.77
2022-12-20T19:55:05.289Z,19.77
2022-12-20T19:57:26.806Z,19.20
2022-12-20T19:59:52.258Z,16.57
2022-12-20T20:02:17.296Z,17.90
2022-12-20T20:04:38.825Z,19.50
2022-12-20T20:07:00.460Z,19.03
2022-12-20T20:09:22.141Z,19.37
2022-12-20T20:11:43.607Z,19.13
2022-12-20T20:14:09.244Z,18.97
2022-12-20T20:16:30.911Z,20.27
2022-12-20T20:18:52.534Z,18.97
2022-12-20T20:21:17.946Z,19.37
2022-12-20T20:23:40.032Z,19.53
2022-12-20T20:26:01.558Z,17.47
2022-12-20T20:28:31.240Z,17.83
2022-12-20T20:30:56.595Z,17.17
2022-12-20T20:33:18.199Z,17.73
2022-12-20T20:35:40.424Z,18.17
2022-12-20T20:38:02.101Z,17.50
2022-12-20T20:40:23.546Z,18.97
2022-12-20T20:42:45.033Z,17.77
2022-12-20T20:45:07.389Z,18.27
2022-12-20T20:47:28.864Z,17.77
2022-12-20T20:49:52.721Z,19.73
2022-12-20T20:52:14.241Z,18.40
2022-12-20T20:54:35.691Z,18.60
2022-12-20T20:56:57.169Z,21.83
2022-12-20T20:59:18.679Z,18.93
2022-12-20T21:01:40.259Z,18.03
2022-12-20T21:04:02.193Z,18.27
2022-12-20T21:06:41.668Z,17.90
2022-12-20T21:09:04.352Z,17.97
2022-12-20T21:11:25.879Z,17.40
2022-12-20T21:13:47.427Z,17.27
2022-12-20T21:16:11.488Z,17.27
2022-12-20T21:18:33.044Z,18.17
2022-12-20T21:20:54.523Z,18.20
2022-12-20T21:23:15.953Z,17.83
2022-12-20T21:25:37.488Z,17.90
2022-12-20T21:27:59.002Z,20.80
2022-12-20T21:30:20.506Z,17.00
2022-12-20T21:32:41.994Z,19.03
2022-12-20T21:35:03.532Z,18.67
2022-12-20T21:37:25.903Z,18.17
2022-12-20T21:39:47.884Z,18.83
2022-12-20T21:42:09.347Z,17.77
2022-12-20T21:44:30.823Z,19.57
2022-12-20T21:46:52.494Z,18.70
2022-12-20T21:49:14.074Z,17.53
2022-12-20T21:51:35.552Z,18.80
2022-12-20T21:53:59.673Z,18.43
2022-12-20T21:56:22.532Z,19.27
2022-12-20T21:58:44.872Z,18.73
2022-12-20T22:01:08.116Z,19.40
2022-12-20T22:03:29.892Z,18.97
2022-12-20T22:05:54.391Z,19.27
2022-12-20T22:08:17.044Z,20.60
2022-12-20T22:10:38.511Z,21.27
2022-12-20T22:12:59.960Z,21.03
2022-12-20T22:15:21.439Z,22.20
2022-12-20T22:17:42.913Z,20.97
2022-12-20T22:20:05.027Z,22.00
2022-12-20T22:22:26.551Z,22.30
2022-12-20T22:24:48.058Z,20.87
2022-12-20T22:27:11.625Z,20.93
2022-12-20T22:29:33.275Z,22.17
2022-12-20T22:31:54.822Z,22.20
2022-12-20T22:34:16.304Z,20.93
2022-12-20T22:36:37.899Z,21.03
2022-12-20T22:38:59.793Z,20.67
2022-12-20T22:41:27.881Z,19.43
2022-12-20T22:43:49.641Z,20.93
2022-12-20T22:46:12.322Z,20.10
2022-12-20T22:48:33.841Z,20.97
2022-12-20T22:51:11.459Z,20.27
2022-12-20T22:53:34.103Z,20.60
2022-12-20T22:55:55.588Z,21.17
2022-12-20T22:58:17.051Z,21.57
2022-12-20T23:00:38.498Z,21.50
2022-12-20T23:03:00.080Z,20.60
2022-12-20T23:05:21.730Z,20.97
2022-12-20T23:07:43.229Z,21.43
2022-12-20T23:10:25.055Z,20.13
2022-12-20T23:13:05.094Z,20.50
2022-12-20T23:15:41.744Z,20.43
2022-12-20T23:18:03.239Z,21.43
2022-12-20T23:20:43.487Z,20.47
2022-12-20T23:23:04.912Z,19.97
2022-12-20T23:25:26.400Z,19.70
2022-12-20T23:27:49.559Z,18.77
2022-12-20T23:30:13.546Z,19.33
2022-12-20T23:32:35.259Z,19.53
2022-12-20T23:34:56.740Z,19.50
2022-12-20T23:37:18.342Z,19.87
2022-12-20T23:39:39.779Z,19.80
2022-12-20T23:42:01.235Z,19.83
2022-12-20T23:44:22.791Z,20.13
2022-12-20T23:46:44.249Z,21.00
2022-12-20T23:49:06.066Z,19.63
2022-12-20T23:51:27.599Z,18.57
2022-12-20T23:53:51.018Z,20.20
2022-12-20T23:56:16.019Z,20.30
2022-12-20T23:58:38.072Z,20.57
